createdAt,value
2023-04-27T00:02:39.157Z,12.28
2023-04-27T00:05:43.605Z,11.76
2023-04-27T00:08:51.665Z,11.45
2023-04-27T00:11:30.713Z,11.04
2023-04-27T00:14:30.248Z,11.49
2023-04-27T00:17:12.877Z,11.15
2023-04-27T00:20:47.849Z,11.18
2023-04-27T00:23:05.979Z,11.04
2023-04-27T00:25:47.600Z,12.14
2023-04-27T00:28:40.046Z,11.66
2023-04-27T00:38:40.636Z,11.22
2023-04-27T00:44:17.113Z,10.71
2023-04-27T00:47:09.262Z,11.26
2023-04-27T00:52:55.807Z,11.24
2023-04-27T00:55:35.240Z,10.79
2023-04-27T00:58:08.795Z,11.40
2023-04-27T01:01:29.084Z,11.92
2023-04-27T01:04:12.277Z,11.84
2023-04-27T01:06:39.525Z,11.89
2023-04-27T01:09:06.548Z,11.91
2023-04-27T01:11:33.975Z,11.63
2023-04-27T01:14:22.158Z,11.97
2023-04-27T01:17:23.233Z,11.87
2023-04-27T01:20:07.562Z,11.69
2023-04-27T01:22:34.642Z,11.80
2023-04-27T01:25:01.865Z,11.55
2023-04-27T01:27:52.028Z,11.85
2023-04-27T01:30:56.058Z,11.62
2023-04-27T01:33:52.016Z,11.91
2023-04-27T01:36:19.282Z,11.82
2023-04-27T01:38:46.333Z,11.60
2023-04-27T01:41:14.074Z,11.56
2023-04-27T01:43:45.669Z,11.67
2023-04-27T01:46:34.033Z,11.62
2023-04-27T01:49:14.758Z,11.67
2023-04-27T01:51:43.421Z,11.49
2023-04-27T01:54:10.822Z,11.05
2023-04-27T01:56:38.141Z,11.56
2023-04-27T01:59:05.439Z,11.45
2023-04-27T02:01:53.103Z,10.73
2023-04-27T02:04:34.267Z,11.01
2023-04-27T02:07:01.592Z,11.47
2023-04-27T02:09:28.864Z,11.39
2023-04-27T02:11:56.164Z,11.59
2023-04-27T02:14:43.081Z,11.26
2023-04-27T02:17:23.616Z,11.46
2023-04-27T02:19:50.670Z,11.27
2023-04-27T02:22:17.969Z,11.35
2023-04-27T02:24:44.941Z,11.37
2023-04-27T02:27:12.195Z,11.34
2023-04-27T02:30:01.021Z,11.14
2023-04-27T02:32:42.357Z,11.25
2023-04-27T02:35:10.264Z,11.19
2023-04-27T02:37:38.338Z,11.39
2023-04-27T02:40:09.624Z,10.37
2023-04-27T02:42:43.715Z,10.17
2023-04-27T02:45:12.048Z,9.98
2023-04-27T02:47:39.845Z,10.70
2023-04-27T02:50:07.893Z,11.15
2023-04-27T02:52:36.376Z,10.72
2023-04-27T02:55:04.148Z,9.99
2023-04-27T02:57:52.118Z,10.78
2023-04-27T03:00:53.067Z,10.91
2023-04-27T03:03:59.775Z,10.94
2023-04-27T03:06:47.254Z,10.90
2023-04-27T03:09:15.949Z,10.98
2023-04-27T03:11:43.523Z,10.63
2023-04-27T03:14:31.066Z,10.64
2023-04-27T03:17:11.876Z,10.89
2023-04-27T03:19:40.113Z,10.84
2023-04-27T03:22:07.196Z,10.78
2023-04-27T03:24:35.700Z,10.44
2023-04-27T03:27:03.494Z,10.76
2023-04-27T03:29:51.069Z,10.03
2023-04-27T03:32:31.765Z,10.60
2023-04-27T03:35:01.417Z,10.56
2023-04-27T03:37:28.599Z,10.40
2023-04-27T03:39:57.383Z,10.63
2023-04-27T03:42:25.196Z,10.76
2023-04-27T03:44:53.113Z,10.34
2023-04-27T03:47:20.394Z,10.55
2023-04-27T03:49:47.672Z,10.51
2023-04-27T03:52:15.393Z,9.94
2023-04-27T03:54:43.280Z,9.10
2023-04-27T03:57:12.336Z,9.80
2023-04-27T03:59:40.041Z,9.68
2023-04-27T04:02:27.290Z,10.31
2023-04-27T04:05:28.192Z,9.59
2023-04-27T04:08:10.427Z,9.31
2023-04-27T04:10:38.057Z,9.64
2023-04-27T04:13:25.146Z,8.90
2023-04-27T04:16:16.324Z,9.60
2023-04-27T04:18:43.686Z,10.30
2023-04-27T04:21:13.727Z,10.18
2023-04-27T04:24:01.102Z,10.34
2023-04-27T04:26:42.072Z,10.21
2023-04-27T04:29:29.120Z,10.39
2023-04-27T04:32:09.892Z,10.32
2023-04-27T04:34:37.741Z,10.44
2023-04-27T04:37:05.564Z,10.50
2023-04-27T04:39:33.374Z,10.37
2023-04-27T04:42:00.557Z,10.52
2023-04-27T04:44:30.326Z,10.97
2023-04-27T04:46:57.755Z,10.56
2023-04-27T04:49:26.675Z,11.08
2023-04-27T04:51:53.724Z,11.53
2023-04-27T04:54:24.497Z,12.58
2023-04-27T04:56:51.547Z,13.39
2023-04-27T04:59:18.842Z,13.92
2023-04-27T05:02:06.147Z,14.44
2023-04-27T05:04:46.851Z,14.94
2023-04-27T05:07:15.137Z,14.98
2023-04-27T05:09:42.771Z,15.50
2023-04-27T05:12:30.196Z,15.48
2023-04-27T05:15:31.191Z,16.05
2023-04-27T05:18:11.888Z,16.46
2023-04-27T05:20:39.228Z,15.88
2023-04-27T05:23:06.243Z,15.60
2023-04-27T05:25:35.075Z,13.98
2023-04-27T05:28:23.164Z,14.11
2023-04-27T05:31:03.877Z,15.06
2023-04-27T05:33:31.137Z,15.68
2023-04-27T05:35:59.812Z,16.90
2023-04-27T05:38:26.970Z,17.55
2023-04-27T05:40:58.782Z,18.95
2023-04-27T05:43:28.260Z,18.22
2023-04-27T05:46:15.204Z,18.10
2023-04-27T05:49:16.230Z,18.72
2023-04-27T05:52:17.220Z,17.42
2023-04-27T05:55:18.232Z,18.04
2023-04-27T05:58:07.829Z,18.55
2023-04-27T06:00:36.962Z,17.98
2023-04-27T06:03:04.370Z,16.81
2023-04-27T06:05:51.148Z,17.20
2023-04-27T06:08:31.925Z,17.91
2023-04-27T06:11:06.859Z,16.44
2023-04-27T06:13:54.192Z,17.16
2023-04-27T06:16:55.144Z,17.80
2023-04-27T06:19:35.757Z,19.03
2023-04-27T06:22:04.059Z,19.49
2023-04-27T06:24:51.161Z,17.58
2023-04-27T06:27:52.193Z,16.98
2023-04-27T06:30:53.206Z,17.79
2023-04-27T06:33:54.194Z,18.05
2023-04-27T06:36:23.068Z,17.30
2023-04-27T06:38:50.047Z,18.41
2023-04-27T06:41:17.090Z,18.58
2023-04-27T06:43:44.023Z,18.71
2023-04-27T06:46:31.268Z,18.94
2023-04-27T06:49:11.971Z,18.01
2023-04-27T06:51:39.108Z,19.27
2023-04-27T06:54:06.152Z,17.65
2023-04-27T06:56:33.251Z,18.35
2023-04-27T06:59:00.489Z,18.88
2023-04-27T07:01:27.584Z,18.97
2023-04-27T07:04:15.303Z,19.68
2023-04-27T07:06:56.498Z,18.02
2023-04-27T07:09:27.520Z,18.22
2023-04-27T07:12:15.164Z,18.63
2023-04-27T07:15:18.201Z,19.76
2023-04-27T07:18:08.624Z,20.74
2023-04-27T07:20:37.926Z,20.54
2023-04-27T07:23:04.914Z,20.49
2023-04-27T07:25:31.958Z,20.48
2023-04-27T07:28:19.211Z,20.33
2023-04-27T07:31:14.587Z,18.08
2023-04-27T07:34:08.190Z,20.51
2023-04-27T07:37:09.360Z,20.23
2023-04-27T07:39:44.080Z,19.65
2023-04-27T07:42:11.667Z,20.23
2023-04-27T07:44:38.678Z,19.46
2023-04-27T07:47:06.724Z,18.76
2023-04-27T07:49:37.502Z,19.51
2023-04-27T07:52:18.242Z,19.81
2023-04-27T07:54:58.988Z,19.03
2023-04-27T07:57:26.208Z,18.48
2023-04-27T07:59:53.714Z,19.34
2023-04-27T08:02:20.725Z,19.47
2023-04-27T08:04:49.071Z,18.57
2023-04-27T08:07:17.647Z,20.30
2023-04-27T08:09:45.053Z,20.45
2023-04-27T08:12:12.091Z,20.38
2023-04-27T08:14:39.164Z,18.10
2023-04-27T08:17:06.438Z,18.98
2023-04-27T08:19:33.585Z,18.92
2023-04-27T08:22:01.212Z,17.31
2023-04-27T08:24:48.246Z,18.01
2023-04-27T08:27:53.232Z,18.02
2023-04-27T08:30:55.239Z,17.97
2023-04-27T08:33:56.510Z,17.89
2023-04-27T08:36:57.272Z,17.92
2023-04-27T08:39:37.922Z,18.19
2023-04-27T08:42:12.295Z,17.65
2023-04-27T08:44:43.574Z,18.20
2023-04-27T08:47:11.484Z,17.68
2023-04-27T08:49:38.852Z,17.86
2023-04-27T08:52:12.789Z,17.25
2023-04-27T08:54:39.840Z,17.49
2023-04-27T08:57:13.973Z,17.81
2023-04-27T08:59:41.509Z,17.99
2023-04-27T09:02:36.391Z,17.81
2023-04-27T09:05:46.422Z,17.70
2023-04-27T09:08:49.569Z,18.39
2023-04-27T09:11:29.675Z,18.83
2023-04-27T09:13:58.719Z,19.35
2023-04-27T09:16:28.506Z,18.13
2023-04-27T09:19:08.282Z,18.48
2023-04-27T09:22:23.427Z,18.28
2023-04-27T09:25:04.219Z,18.39
2023-04-27T09:27:57.468Z,18.08
2023-04-27T09:31:05.293Z,19.35
2023-04-27T09:33:57.604Z,19.72
2023-04-27T09:36:25.912Z,19.61
2023-04-27T09:38:53.573Z,19.06
2023-04-27T09:41:21.802Z,19.06
2023-04-27T09:43:50.678Z,19.19
2023-04-27T09:46:18.229Z,20.49
2023-04-27T09:48:45.262Z,20.34
2023-04-27T09:51:15.086Z,20.61
2023-04-27T09:53:58.853Z,20.41
2023-04-27T09:56:51.183Z,20.94
2023-04-27T09:59:57.222Z,19.59
2023-04-27T10:02:26.917Z,20.96
2023-04-27T10:05:51.310Z,22.32
2023-04-27T10:08:53.284Z,20.80
2023-04-27T10:11:40.904Z,21.96
2023-04-27T10:14:11.184Z,21.40
2023-04-27T10:16:58.860Z,21.86
2023-04-27T10:19:26.276Z,21.97
2023-04-27T10:22:03.715Z,22.69
2023-04-27T10:24:41.362Z,23.17
2023-04-27T10:27:11.584Z,23.41
2023-04-27T10:30:00.355Z,23.40
2023-04-27T10:33:06.374Z,22.82
2023-04-27T10:35:56.661Z,23.37
2023-04-27T10:38:29.495Z,22.59
2023-04-27T10:41:00.390Z,21.91
2023-04-27T10:43:29.936Z,21.76
2023-04-27T10:46:14.088Z,23.28
2023-04-27T10:48:41.802Z,22.62
2023-04-27T10:51:30.298Z,22.92
2023-04-27T10:54:12.485Z,23.24
2023-04-27T10:56:40.807Z,23.43
2023-04-27T10:59:08.529Z,22.82
2023-04-27T11:01:55.382Z,22.58
2023-04-27T11:04:56.400Z,21.79
2023-04-27T11:07:39.098Z,21.34
2023-04-27T11:10:08.555Z,20.35
2023-04-27T11:12:39.157Z,21.61
2023-04-27T11:15:07.378Z,21.24
2023-04-27T11:17:54.410Z,21.60
2023-04-27T11:20:34.906Z,22.05
2023-04-27T11:23:01.845Z,22.49
2023-04-27T11:25:30.120Z,22.40
2023-04-27T11:28:11.353Z,21.95
2023-04-27T11:31:13.427Z,21.16
2023-04-27T11:33:55.985Z,21.79
2023-04-27T11:36:25.187Z,22.16
2023-04-27T11:38:57.888Z,21.52
2023-04-27T11:41:33.798Z,21.92
2023-04-27T11:44:07.619Z,22.06
2023-04-27T11:46:58.342Z,22.40
2023-04-27T11:50:03.426Z,22.24
2023-04-27T11:52:49.043Z,22.63
2023-04-27T11:55:16.439Z,22.58
2023-04-27T11:57:43.720Z,21.65
2023-04-27T12:00:11.457Z,22.50
2023-04-27T12:02:43.706Z,21.99
2023-04-27T12:05:31.444Z,21.46
2023-04-27T12:08:12.927Z,21.76
2023-04-27T12:10:40.988Z,21.81
2023-04-27T12:13:08.230Z,21.37
2023-04-27T12:15:35.224Z,21.17
2023-04-27T12:18:02.419Z,21.96
2023-04-27T12:20:29.681Z,22.06
2023-04-27T12:22:58.049Z,22.14
2023-04-27T12:25:25.187Z,21.93
2023-04-27T12:28:12.417Z,21.89
2023-04-27T12:31:13.453Z,22.41
2023-04-27T12:33:54.259Z,22.38
2023-04-27T12:36:21.330Z,22.75
2023-04-27T12:38:48.423Z,23.09
2023-04-27T12:41:15.753Z,22.76
2023-04-27T12:43:43.784Z,22.77
2023-04-27T12:46:11.675Z,22.37
2023-04-27T12:48:41.868Z,22.28
2023-04-27T12:51:29.399Z,22.80
2023-04-27T12:54:30.456Z,22.60
2023-04-27T12:57:13.081Z,22.13
2023-04-27T12:59:41.626Z,23.10
2023-04-27T13:02:09.980Z,23.22
2023-04-27T13:04:57.500Z,22.79
2023-04-27T13:07:51.402Z,23.48
2023-04-27T13:10:32.179Z,23.93
2023-04-27T13:13:12.577Z,23.26
2023-04-27T13:16:06.428Z,22.58
2023-04-27T13:18:55.657Z,22.63
2023-04-27T13:21:23.324Z,22.15
2023-04-27T13:23:51.325Z,22.07
2023-04-27T13:26:19.199Z,21.15
2023-04-27T13:29:06.407Z,22.15
2023-04-27T13:32:07.453Z,22.03
2023-04-27T13:34:48.105Z,21.41
2023-04-27T13:37:15.066Z,21.48
2023-04-27T13:39:42.070Z,21.12
2023-04-27T13:42:09.112Z,21.39
2023-04-27T13:44:36.164Z,21.09
2023-04-27T13:47:23.463Z,21.52
2023-04-27T13:50:27.550Z,21.66
2023-04-27T13:53:28.472Z,21.93
2023-04-27T13:56:09.121Z,21.53
2023-04-27T13:58:37.179Z,21.63
2023-04-27T14:01:11.837Z,20.98
2023-04-27T14:03:59.586Z,21.36
2023-04-27T14:07:00.458Z,21.97
2023-04-27T14:10:01.481Z,22.00
2023-04-27T14:13:03.439Z,21.83
2023-04-27T14:16:04.531Z,21.85
2023-04-27T14:18:55.994Z,21.84
2023-04-27T14:21:23.091Z,22.04
2023-04-27T14:23:50.044Z,22.28
2023-04-27T14:26:17.082Z,22.87
2023-04-27T14:29:04.464Z,22.93
2023-04-27T14:31:46.320Z,22.76
2023-04-27T14:34:17.912Z,22.69
2023-04-27T14:36:46.120Z,22.95
2023-04-27T14:39:13.508Z,22.24
2023-04-27T14:42:00.483Z,22.23
2023-04-27T14:44:41.229Z,22.74
2023-04-27T14:47:08.305Z,23.31
2023-04-27T14:49:35.445Z,23.37
2023-04-27T14:52:22.458Z,23.96
2023-04-27T14:55:24.501Z,23.88
2023-04-27T14:58:26.481Z,23.65
2023-04-27T15:01:27.562Z,24.11
2023-04-27T15:04:28.681Z,24.07
2023-04-27T15:07:29.510Z,23.59
2023-04-27T15:10:11.332Z,22.71
2023-04-27T15:12:38.446Z,22.85
2023-04-27T15:15:08.051Z,22.63
2023-04-27T15:17:37.561Z,21.62
2023-04-27T15:20:05.999Z,22.77
2023-04-27T15:22:33.132Z,22.64
2023-04-27T15:25:00.323Z,23.22
2023-04-27T15:27:48.518Z,23.03
2023-04-27T15:30:49.531Z,23.20
2023-04-27T15:33:45.939Z,23.17
2023-04-27T15:36:12.930Z,22.91
2023-04-27T15:38:41.917Z,21.93
2023-04-27T15:41:28.537Z,22.11
2023-04-27T15:44:30.964Z,22.03
2023-04-27T15:47:22.721Z,22.09
2023-04-27T15:50:09.576Z,21.21
2023-04-27T15:53:10.521Z,22.10
2023-04-27T15:56:11.616Z,22.34
2023-04-27T15:59:13.713Z,22.29
2023-04-27T16:02:14.545Z,22.19
2023-04-27T16:05:15.610Z,21.76
2023-04-27T16:07:56.942Z,22.01
2023-04-27T16:10:24.099Z,21.68
2023-04-27T16:12:51.542Z,20.74
2023-04-27T16:15:19.073Z,21.20
2023-04-27T16:17:46.934Z,21.29
2023-04-27T16:20:14.360Z,21.30
2023-04-27T16:23:01.702Z,21.05
2023-04-27T16:25:42.562Z,21.26
2023-04-27T16:28:29.591Z,21.80
2023-04-27T16:31:31.603Z,21.81
2023-04-27T16:34:12.144Z,21.46
2023-04-27T16:36:39.135Z,21.04
2023-04-27T16:39:06.095Z,21.14
2023-04-27T16:41:33.538Z,21.28
2023-04-27T16:44:00.637Z,21.22
2023-04-27T16:46:27.734Z,21.62
2023-04-27T16:49:14.900Z,21.37
2023-04-27T16:52:15.828Z,21.21
2023-04-27T16:55:16.539Z,21.18
2023-04-27T16:57:56.914Z,20.85
2023-04-27T17:00:23.865Z,21.17
2023-04-27T17:02:50.894Z,21.16
2023-04-27T17:05:37.549Z,21.06
2023-04-27T17:08:38.773Z,20.98
2023-04-27T17:11:44.703Z,20.98
2023-04-27T17:14:38.356Z,21.17
2023-04-27T17:17:10.600Z,20.63
2023-04-27T17:19:37.673Z,20.69
2023-04-27T17:22:24.560Z,20.43
2023-04-27T17:25:05.785Z,20.62
2023-04-27T17:27:52.632Z,20.33
2023-04-27T17:30:39.396Z,20.49
2023-04-27T17:33:07.302Z,20.53
2023-04-27T17:35:55.608Z,20.33
2023-04-27T17:38:36.483Z,20.18
2023-04-27T17:41:04.248Z,20.27
2023-04-27T17:43:31.472Z,20.30
2023-04-27T17:46:21.648Z,20.22
2023-04-27T17:49:28.593Z,20.17
2023-04-27T17:52:29.676Z,20.07
2023-04-27T17:55:25.973Z,19.77
2023-04-27T17:57:52.984Z,19.28
2023-04-27T18:00:22.111Z,19.82
2023-04-27T18:02:49.953Z,19.75
2023-04-27T18:05:38.849Z,19.21
2023-04-27T18:08:42.590Z,19.37
2023-04-27T18:11:43.634Z,19.23
2023-04-27T18:14:31.212Z,19.21
2023-04-27T18:16:58.109Z,19.24
2023-04-27T18:19:25.253Z,19.10
2023-04-27T18:21:52.319Z,18.86
2023-04-27T18:24:19.312Z,18.74
2023-04-27T18:26:46.272Z,18.84
2023-04-27T18:29:33.608Z,18.81
2023-04-27T18:32:34.679Z,18.83
2023-04-27T18:35:35.618Z,18.83
2023-04-27T18:38:36.618Z,18.83
2023-04-27T18:41:37.782Z,18.82
2023-04-27T18:44:38.650Z,18.68
2023-04-27T18:47:08.616Z,18.42
2023-04-27T18:49:36.002Z,18.55
2023-04-27T18:52:22.638Z,18.52
2023-04-27T18:55:24.621Z,18.44
2023-04-27T18:58:05.225Z,18.26
2023-04-27T19:00:32.236Z,18.17
2023-04-27T19:02:59.367Z,17.95
2023-04-27T19:06:00.686Z,18.22
2023-04-27T19:09:01.663Z,17.95
2023-04-27T19:12:03.541Z,17.84
2023-04-27T19:15:05.649Z,18.02
2023-04-27T19:18:10.857Z,17.94
2023-04-27T19:20:52.373Z,17.85
2023-04-27T19:23:19.561Z,17.91
2023-04-27T19:25:50.533Z,17.70
2023-04-27T19:28:37.823Z,17.66
2023-04-27T19:31:43.036Z,17.60
2023-04-27T19:34:23.343Z,17.58
2023-04-27T19:36:50.319Z,17.48
2023-04-27T19:39:37.671Z,17.70
2023-04-27T19:42:18.283Z,17.80
2023-04-27T19:45:05.668Z,17.84
2023-04-27T19:48:06.787Z,17.69
2023-04-27T19:51:07.686Z,17.56
2023-04-27T19:54:08.696Z,17.35
2023-04-27T19:57:10.687Z,17.43
2023-04-27T20:00:13.671Z,17.19
2023-04-27T20:02:41.921Z,17.19
2023-04-27T20:05:29.918Z,17.18
2023-04-27T20:08:30.691Z,17.15
2023-04-27T20:11:33.729Z,17.19
2023-04-27T20:14:31.382Z,17.11
2023-04-27T20:17:24.714Z,17.02
2023-04-27T20:20:19.708Z,16.85
2023-04-27T20:23:02.502Z,16.85
2023-04-27T20:25:49.761Z,16.88
2023-04-27T20:28:50.806Z,16.74
2023-04-27T20:31:31.445Z,16.47
2023-04-27T20:34:18.741Z,16.76
2023-04-27T20:36:59.414Z,16.52
2023-04-27T20:39:26.590Z,16.65
2023-04-27T20:41:54.414Z,16.20
2023-04-27T20:44:42.835Z,16.29
2023-04-27T20:47:24.360Z,16.62
2023-04-27T20:49:51.455Z,16.58
2023-04-27T20:52:38.748Z,16.50
2023-04-27T20:55:40.741Z,16.31
2023-04-27T20:58:32.659Z,16.10
2023-04-27T21:00:59.714Z,15.90
2023-04-27T21:03:47.952Z,15.90
2023-04-27T21:06:48.799Z,15.81
2023-04-27T21:09:29.278Z,15.81
2023-04-27T21:11:56.343Z,15.04
2023-04-27T21:14:43.793Z,15.58
2023-04-27T21:17:24.429Z,15.69
2023-04-27T21:19:51.342Z,15.40
2023-04-27T21:22:18.372Z,15.41
2023-04-27T21:24:46.408Z,15.24
2023-04-27T21:27:13.419Z,14.55
2023-04-27T21:30:00.717Z,15.45
2023-04-27T21:33:01.754Z,15.30
2023-04-27T21:36:03.772Z,15.10
2023-04-27T21:39:04.724Z,15.04
2023-04-27T21:42:05.713Z,15.20
2023-04-27T21:45:06.709Z,14.74
2023-04-27T21:48:07.806Z,14.66
2023-04-27T21:51:08.738Z,14.70
2023-04-27T21:54:09.766Z,14.50
2023-04-27T21:57:04.256Z,14.62
2023-04-27T21:59:40.200Z,14.81
2023-04-27T22:02:07.166Z,14.58
2023-04-27T22:04:55.815Z,14.12
2023-04-27T22:07:58.723Z,14.30
2023-04-27T22:10:59.766Z,14.05
2023-04-27T22:13:40.276Z,14.13
2023-04-27T22:16:07.373Z,14.24
2023-04-27T22:18:54.757Z,14.11
2023-04-27T22:21:35.488Z,14.15
2023-04-27T22:24:02.383Z,14.16
2023-04-27T22:26:29.615Z,14.48
2023-04-27T22:29:16.757Z,14.41
2023-04-27T22:31:57.901Z,14.20
2023-04-27T22:34:38.235Z,14.04
2023-04-27T22:37:31.753Z,14.20
2023-04-27T22:40:32.723Z,14.16
2023-04-27T22:43:05.598Z,14.21
2023-04-27T22:45:32.579Z,14.19
2023-04-27T22:48:00.012Z,14.06
2023-04-27T22:50:27.092Z,13.84
2023-04-27T22:53:13.753Z,13.91
2023-04-27T22:56:16.095Z,13.97
2023-04-27T22:58:58.324Z,13.93
2023-04-27T23:01:25.714Z,13.53
2023-04-27T23:04:13.979Z,13.56
2023-04-27T23:06:55.008Z,13.57
2023-04-27T23:09:22.709Z,13.34
2023-04-27T23:11:50.948Z,13.24
2023-04-27T23:14:18.408Z,13.44
2023-04-27T23:16:48.698Z,13.20
2023-04-27T23:19:15.886Z,13.45
2023-04-27T23:21:43.753Z,13.28
2023-04-27T23:24:10.693Z,13.13
2023-04-27T23:26:37.680Z,13.09
2023-04-27T23:29:24.776Z,13.28
2023-04-27T23:32:25.805Z,13.45
2023-04-27T23:35:26.775Z,13.41
2023-04-27T23:38:07.311Z,13.29
2023-04-27T23:40:34.343Z,13.18
2023-04-27T23:43:01.496Z,13.24
2023-04-27T23:45:28.336Z,13.44
2023-04-27T23:48:15.763Z,13.30
2023-04-27T23:51:17.793Z,13.06
2023-04-27T23:54:18.805Z,12.66
2023-04-27T23:56:59.431Z,12.80
2023-04-27T23:59:26.399Z,12.40
